Time;durP1;ratioP1;P1;durP2;ratioP2;P2;SDS_P1;SDS_P2;PMS_P1;PMS_P2;Temp;Humidity;BMP_temperature;BMP_pressure;BME280_temperature;BME280_humidity;BME280_pressure;Samples;Min_cycle;Max_cycle;Signal;HPM_P1;HPM_P2
2024/01/05 00:01:01;;;;;;;4.78;1.17;;;;;;;;;;4980238;28;20031;-79
2024/01/05 00:03:27;;;;;;;5.10;0.93;;;;;;;;;;4965279;28;20518;-81
2024/01/05 00:05:52;;;;;;;1.75;1.40;;;;;;;;;;4976629;28;21694;-82
2024/01/05 00:08:17;;;;;;;3.08;0.88;;;;;;;;;;4978564;28;21033;-80
2024/01/05 00:10:42;;;;;;;0.93;0.82;;;;;;;;;;4980837;28;21572;-79
2024/01/05 00:13:08;;;;;;;1.70;1.10;;;;;;;;;;4977760;28;20536;-80
2024/01/05 00:15:33;;;;;;;1.50;1.08;;;;;;;;;;4960335;28;20503;-81
2024/01/05 00:17:58;;;;;;;2.15;1.33;;;;;;;;;;4987735;28;21558;-80
2024/01/05 00:20:24;;;;;;;3.65;1.20;;;;;;;;;;4979313;28;20038;-81
2024/01/05 00:22:49;;;;;;;2.10;0.90;;;;;;;;;;4982745;28;20030;-80
2024/01/05 00:25:16;;;;;;;4.90;1.30;;;;;;;;;;4988929;28;20065;-80
2024/01/05 00:27:41;;;;;;;4.05;1.65;;;;;;;;;;4973220;28;20518;-79
2024/01/05 00:30:07;;;;;;;6.47;1.45;;;;;;;;;;4950405;28;20034;-81
2024/01/05 00:32:33;;;;;;;1.58;1.05;;;;;;;;;;4967486;28;20035;-80
2024/01/05 00:34:58;;;;;;;1.75;1.20;;;;;;;;;;4963447;28;20027;-80
2024/01/05 00:37:23;;;;;;;8.68;1.13;;;;;;;;;;4987071;28;20037;-80
2024/01/05 00:39:49;;;;;;;0.80;0.80;;;;;;;;;;4973579;28;20043;-79
2024/01/05 00:42:14;;;;;;;0.98;0.90;;;;;;;;;;4983546;28;20053;-80
2024/01/05 00:44:41;;;;;;;1.85;1.13;;;;;;;;;;4961689;28;20050;-80
2024/01/05 00:47:06;;;;;;;1.27;1.15;;;;;;;;;;4982585;28;20389;-79
2024/01/05 00:49:31;;;;;;;3.78;1.33;;;;;;;;;;4977839;28;20066;-81
2024/01/05 00:51:56;;;;;;;5.53;1.13;;;;;;;;;;4975459;28;20148;-80
2024/01/05 00:54:22;;;;;;;3.58;1.40;;;;;;;;;;4976314;28;20472;-80
2024/01/05 00:56:47;;;;;;;4.65;1.50;;;;;;;;;;4969019;28;20035;-79
2024/01/05 00:59:13;;;;;;;2.08;1.20;;;;;;;;;;4980342;28;20319;-81
2024/01/05 01:01:38;;;;;;;2.83;1.10;;;;;;;;;;4955738;28;20043;-80
2024/01/05 01:04:03;;;;;;;1.75;1.05;;;;;;;;;;4977429;28;20035;-79
2024/01/05 01:06:29;;;;;;;1.60;1.17;;;;;;;;;;4962642;28;20135;-79
2024/01/05 01:08:54;;;;;;;6.03;1.45;;;;;;;;;;4979073;28;20039;-79
2024/01/05 01:11:19;;;;;;;2.78;1.45;;;;;;;;;;4988677;28;20438;-79
2024/01/05 01:13:45;;;;;;;2.70;1.38;;;;;;;;;;4970054;28;20035;-80
2024/01/05 01:16:11;;;;;;;2.95;1.42;;;;;;;;;;4980669;28;20031;-79
2024/01/05 01:18:36;;;;;;;4.90;1.20;;;;;;;;;;4974922;28;20083;-81
2024/01/05 01:21:02;;;;;;;5.78;1.30;;;;;;;;;;4974294;28;20043;-82
2024/01/05 01:23:28;;;;;;;1.88;1.33;;;;;;;;;;4973429;28;20088;-79
2024/01/05 01:25:53;;;;;;;4.40;0.90;;;;;;;;;;4979363;28;20104;-79
2024/01/05 01:28:18;;;;;;;1.10;1.02;;;;;;;;;;4980049;28;20925;-79
2024/01/05 01:30:43;;;;;;;1.00;0.90;;;;;;;;;;4973994;28;20540;-79
2024/01/05 01:33:09;;;;;;;2.33;1.10;;;;;;;;;;4983757;28;20047;-79
2024/01/05 01:35:34;;;;;;;2.42;1.30;;;;;;;;;;4965691;28;20073;-80
2024/01/05 01:37:59;;;;;;;0.88;0.88;;;;;;;;;;4987154;28;20042;-79
2024/01/05 01:40:26;;;;;;;0.60;0.55;;;;;;;;;;4974545;28;20070;-80
2024/01/05 01:42:51;;;;;;;3.17;1.27;;;;;;;;;;4974461;28;20035;-79
2024/01/05 01:45:16;;;;;;;0.60;0.60;;;;;;;;;;4992870;28;20053;-80
2024/01/05 01:47:43;;;;;;;2.97;1.13;;;;;;;;;;4980717;28;20422;-79
2024/01/05 01:50:09;;;;;;;3.95;1.38;;;;;;;;;;4984511;28;20611;-79
2024/01/05 01:52:37;;;;;;;1.95;0.88;;;;;;;;;;4979429;28;20062;-79
2024/01/05 01:55:03;;;;;;;1.20;1.02;;;;;;;;;;4985887;28;20036;-80
2024/01/05 01:57:29;;;;;;;1.02;0.80;;;;;;;;;;4970549;28;20403;-80
2024/01/05 01:59:54;;;;;;;3.65;1.27;;;;;;;;;;4965089;28;20061;-79
2024/01/05 02:02:20;;;;;;;1.50;1.05;;;;;;;;;;4988713;28;20035;-79
2024/01/05 02:04:46;;;;;;;3.42;1.00;;;;;;;;;;4982497;28;20042;-79
2024/01/05 02:07:12;;;;;;;0.82;0.82;;;;;;;;;;4985814;28;20100;-80
2024/01/05 02:09:39;;;;;;;1.70;0.98;;;;;;;;;;4983530;28;20034;-81
2024/01/05 02:12:05;;;;;;;0.60;0.60;;;;;;;;;;4980705;28;20094;-78
2024/01/05 02:14:30;;;;;;;3.22;1.17;;;;;;;;;;4981993;28;20525;-79
2024/01/05 02:16:56;;;;;;;1.42;1.13;;;;;;;;;;4987842;28;20027;-81
2024/01/05 02:19:21;;;;;;;1.65;1.02;;;;;;;;;;4983305;28;20065;-80
2024/01/05 02:21:50;;;;;;;0.70;0.70;;;;;;;;;;4982541;28;20027;-80
2024/01/05 02:24:16;;;;;;;1.90;0.90;;;;;;;;;;4980116;28;20523;-79
2024/01/05 02:26:41;;;;;;;1.55;1.10;;;;;;;;;;4980218;28;20106;-80
2024/01/05 02:29:06;;;;;;;1.58;1.20;;;;;;;;;;4980861;28;20630;-79
2024/01/05 02:31:32;;;;;;;0.98;0.82;;;;;;;;;;4981303;28;20112;-79
2024/01/05 02:33:57;;;;;;;2.15;1.15;;;;;;;;;;4967923;28;20043;-77
2024/01/05 02:36:22;;;;;;;4.90;1.45;;;;;;;;;;4962839;28;20072;-80
2024/01/05 02:38:48;;;;;;;7.68;1.17;;;;;;;;;;4976209;28;20059;-81
2024/01/05 02:41:13;;;;;;;2.85;1.08;;;;;;;;;;4981247;28;20038;-79
2024/01/05 02:43:38;;;;;;;1.35;0.93;;;;;;;;;;4973565;28;20042;-80
2024/01/05 02:46:03;;;;;;;2.15;0.90;;;;;;;;;;4978706;28;20042;-80
2024/01/05 02:48:29;;;;;;;2.03;0.95;;;;;;;;;;4981930;28;20038;-79
2024/01/05 02:50:54;;;;;;;4.05;1.20;;;;;;;;;;4968362;28;20015;-79
2024/01/05 02:53:19;;;;;;;1.30;1.20;;;;;;;;;;4983341;28;20093;-80
2024/01/05 02:55:45;;;;;;;1.48;1.20;;;;;;;;;;4965357;28;20043;-79
2024/01/05 02:58:10;;;;;;;2.20;1.17;;;;;;;;;;4948327;28;20372;-80
2024/01/05 03:00:35;;;;;;;2.72;1.13;;;;;;;;;;4983054;28;20027;-80
2024/01/05 03:03:01;;;;;;;1.00;0.90;;;;;;;;;;4980411;28;20039;-80
2024/01/05 03:05:26;;;;;;;2.58;0.90;;;;;;;;;;4962281;28;20521;-80
2024/01/05 03:07:52;;;;;;;4.38;1.10;;;;;;;;;;4981576;28;20034;-80
2024/01/05 03:10:17;;;;;;;1.65;1.08;;;;;;;;;;4988575;28;20038;-79
2024/01/05 03:12:42;;;;;;;0.98;0.85;;;;;;;;;;4983631;28;20050;-80
2024/01/05 03:15:08;;;;;;;1.30;1.20;;;;;;;;;;4969637;28;20468;-80
2024/01/05 03:17:33;;;;;;;3.60;1.35;;;;;;;;;;4988234;28;20038;-79
2024/01/05 03:19:59;;;;;;;2.15;1.08;;;;;;;;;;4979085;28;20042;-79
2024/01/05 03:22:24;;;;;;;1.75;1.17;;;;;;;;;;4985867;28;20098;-79
2024/01/05 03:24:49;;;;;;;4.18;1.40;;;;;;;;;;4982866;28;20049;-80
2024/01/05 03:27:15;;;;;;;4.05;1.45;;;;;;;;;;4988776;28;20061;-79
2024/01/05 03:29:41;;;;;;;4.70;1.60;;;;;;;;;;4991983;28;20034;-79
2024/01/05 03:32:08;;;;;;;4.20;2.00;;;;;;;;;;4967593;28;20400;-79
2024/01/05 03:34:33;;;;;;;2.10;1.70;;;;;;;;;;4983539;28;20042;-81
2024/01/05 03:36:58;;;;;;;3.42;1.90;;;;;;;;;;4983403;28;20496;-80
2024/01/05 03:39:25;;;;;;;3.15;1.90;;;;;;;;;;4973586;28;20034;-79
2024/01/05 03:41:50;;;;;;;3.25;2.13;;;;;;;;;;4981963;28;21590;-80
2024/01/05 03:44:20;;;;;;;4.75;2.20;;;;;;;;;;4978558;28;20058;-81
2024/01/05 03:46:47;;;;;;;4.55;2.03;;;;;;;;;;4983794;28;20053;-79
2024/01/05 03:49:13;;;;;;;1.50;1.40;;;;;;;;;;4988426;28;20101;-81
2024/01/05 03:51:38;;;;;;;4.03;1.20;;;;;;;;;;4963591;28;20076;-80
2024/01/05 03:54:03;;;;;;;1.92;1.45;;;;;;;;;;4984396;28;20035;-79
2024/01/05 03:56:40;;;;;;;1.02;1.02;;;;;;;;;;4986432;28;20035;-80
2024/01/05 03:59:06;;;;;;;2.28;1.17;;;;;;;;;;4979411;28;20484;-80
2024/01/05 04:01:33;;;;;;;1.92;1.40;;;;;;;;;;4984244;28;20091;-80
2024/01/05 04:03:59;;;;;;;1.98;1.50;;;;;;;;;;4973100;28;20035;-80
2024/01/05 04:06:24;;;;;;;1.95;1.55;;;;;;;;;;4994912;28;20041;-80
2024/01/05 04:08:51;;;;;;;1.77;1.60;;;;;;;;;;4985227;28;20027;-78
2024/01/05 04:11:20;;;;;;;4.53;1.85;;;;;;;;;;4991681;28;20045;-79
2024/01/05 04:13:45;;;;;;;7.50;1.83;;;;;;;;;;4985918;28;20042;-79
2024/01/05 04:16:10;;;;;;;4.28;1.75;;;;;;;;;;4971701;28;20042;-80
2024/01/05 04:18:36;;;;;;;2.60;1.77;;;;;;;;;;4996852;28;20037;-78
2024/01/05 04:21:02;;;;;;;4.50;2.00;;;;;;;;;;4990350;28;20047;-79
2024/01/05 04:23:27;;;;;;;2.65;1.80;;;;;;;;;;4971221;28;20038;-79
2024/01/05 04:25:52;;;;;;;3.45;1.95;;;;;;;;;;4997746;28;20034;-79
2024/01/05 04:28:18;;;;;;;2.45;1.70;;;;;;;;;;4992336;28;20121;-80
2024/01/05 04:30:43;;;;;;;5.00;1.52;;;;;;;;;;4992704;28;20030;-80
2024/01/05 04:33:08;;;;;;;2.05;1.83;;;;;;;;;;4989557;28;20032;-79
2024/01/05 04:35:34;;;;;;;3.95;1.85;;;;;;;;;;4995616;28;20030;-79
2024/01/05 04:37:59;;;;;;;4.65;2.13;;;;;;;;;;4991080;28;20051;-78
2024/01/05 04:40:24;;;;;;;2.17;1.95;;;;;;;;;;4995883;28;20092;-79
2024/01/05 04:42:50;;;;;;;4.50;2.35;;;;;;;;;;4989927;28;20057;-80
2024/01/05 04:45:16;;;;;;;9.55;2.10;;;;;;;;;;4985856;28;20043;-80
2024/01/05 04:47:42;;;;;;;5.18;2.45;;;;;;;;;;4988054;28;20034;-80
2024/01/05 04:50:09;;;;;;;5.28;2.20;;;;;;;;;;4971492;28;20042;-79
2024/01/05 04:52:35;;;;;;;4.22;2.20;;;;;;;;;;4993494;28;20061;-78
2024/01/05 04:55:00;;;;;;;7.28;2.45;;;;;;;;;;4975029;28;20110;-81
2024/01/05 04:57:26;;;;;;;7.15;2.50;;;;;;;;;;4988973;28;20054;-80
2024/01/05 04:59:51;;;;;;;3.58;1.55;;;;;;;;;;4979581;28;20038;-81
2024/01/05 05:02:16;;;;;;;6.95;1.98;;;;;;;;;;4995353;28;20049;-80
2024/01/05 05:04:42;;;;;;;2.05;1.88;;;;;;;;;;4993984;28;20053;-80
2024/01/05 05:07:07;;;;;;;6.40;2.03;;;;;;;;;;4988934;28;20046;-79
2024/01/05 05:09:32;;;;;;;3.08;1.85;;;;;;;;;;4973829;28;20034;-81
2024/01/05 05:11:58;;;;;;;5.57;2.05;;;;;;;;;;4991090;28;20118;-78
2024/01/05 05:14:23;;;;;;;3.38;1.80;;;;;;;;;;4996115;28;20046;-79
2024/01/05 05:16:48;;;;;;;3.78;2.20;;;;;;;;;;4994484;28;20065;-78
2024/01/05 05:19:14;;;;;;;4.47;2.03;;;;;;;;;;4981164;28;20038;-78
2024/01/05 05:21:39;;;;;;;3.65;2.10;;;;;;;;;;4995504;28;20475;-81
2024/01/05 05:24:04;;;;;;;3.47;2.10;;;;;;;;;;4990576;28;20110;-79
2024/01/05 05:26:29;;;;;;;10.10;2.30;;;;;;;;;;4996675;28;20034;-80
2024/01/05 05:28:55;;;;;;;4.07;2.10;;;;;;;;;;4995711;28;20034;-78
2024/01/05 05:31:20;;;;;;;2.38;1.70;;;;;;;;;;4999171;28;20057;-79
2024/01/05 05:33:45;;;;;;;4.00;1.90;;;;;;;;;;4992243;28;20042;-80
2024/01/05 05:36:11;;;;;;;6.40;1.38;;;;;;;;;;4980126;28;20035;-80
2024/01/05 05:38:36;;;;;;;2.65;1.20;;;;;;;;;;4999328;28;20038;-80
2024/01/05 05:41:01;;;;;;;0.90;0.90;;;;;;;;;;4992149;28;20039;-79
2024/01/05 05:43:26;;;;;;;1.48;1.20;;;;;;;;;;5000011;28;20030;-79
2024/01/05 05:45:52;;;;;;;1.83;1.17;;;;;;;;;;4998804;28;20164;-79
2024/01/05 05:48:17;;;;;;;2.25;1.38;;;;;;;;;;5000485;28;20050;-79
2024/01/05 05:50:43;;;;;;;1.63;1.20;;;;;;;;;;5000658;28;20042;-78
2024/01/05 05:53:09;;;;;;;1.30;0.85;;;;;;;;;;5000164;28;20088;-78
2024/01/05 05:55:35;;;;;;;1.15;0.93;;;;;;;;;;4977828;28;20073;-80
2024/01/05 05:58:00;;;;;;;2.92;1.38;;;;;;;;;;4994950;28;20038;-80
2024/01/05 06:00:26;;;;;;;1.17;1.08;;;;;;;;;;5000788;28;20054;-79
2024/01/05 06:02:51;;;;;;;2.13;1.33;;;;;;;;;;4990854;28;20139;-80
2024/01/05 06:05:16;;;;;;;1.60;1.20;;;;;;;;;;4982508;28;20058;-79
2024/01/05 06:07:42;;;;;;;2.33;1.30;;;;;;;;;;4996331;28;20035;-80
2024/01/05 06:10:07;;;;;;;4.10;1.30;;;;;;;;;;4993553;28;20048;-80
2024/01/05 06:12:33;;;;;;;0.93;0.93;;;;;;;;;;4997306;28;20034;-79
2024/01/05 06:14:58;;;;;;;1.13;1.05;;;;;;;;;;4995608;28;20712;-79
2024/01/05 06:17:24;;;;;;;1.65;1.17;;;;;;;;;;4999039;28;20034;-80
2024/01/05 06:19:50;;;;;;;1.50;1.20;;;;;;;;;;5000311;28;20495;-79
2024/01/05 06:22:16;;;;;;;3.58;1.35;;;;;;;;;;5001631;28;20423;-79
2024/01/05 06:24:44;;;;;;;1.83;1.10;;;;;;;;;;5000842;28;20053;-79
2024/01/05 06:27:09;;;;;;;1.35;1.10;;;;;;;;;;4983326;28;20034;-79
2024/01/05 06:29:35;;;;;;;2.05;1.25;;;;;;;;;;4996604;28;20500;-79
2024/01/05 06:32:01;;;;;;;1.50;1.40;;;;;;;;;;4993193;28;20034;-78
2024/01/05 06:34:26;;;;;;;2.28;0.90;;;;;;;;;;4994992;28;20047;-78
2024/01/05 06:36:51;;;;;;;1.27;1.00;;;;;;;;;;4996173;28;20117;-80
2024/01/05 06:39:17;;;;;;;1.63;1.15;;;;;;;;;;4999328;28;20034;-80
2024/01/05 06:41:42;;;;;;;2.55;1.15;;;;;;;;;;4997786;28;20045;-79
2024/01/05 06:44:07;;;;;;;1.55;1.10;;;;;;;;;;5001189;28;20134;-81
2024/01/05 06:46:33;;;;;;;1.48;0.90;;;;;;;;;;5001679;28;20553;-78
2024/01/05 06:48:58;;;;;;;0.90;0.90;;;;;;;;;;4982578;28;20031;-78
2024/01/05 06:51:24;;;;;;;1.02;0.98;;;;;;;;;;4996204;28;20038;-80
2024/01/05 06:53:49;;;;;;;1.10;0.80;;;;;;;;;;4976081;28;20054;-79
2024/01/05 06:56:15;;;;;;;2.42;0.95;;;;;;;;;;4960506;28;20062;-78
2024/01/05 06:58:40;;;;;;;1.17;0.95;;;;;;;;;;4960546;28;20057;-78
2024/01/05 07:01:06;;;;;;;1.33;0.90;;;;;;;;;;4981742;28;20113;-79
2024/01/05 07:03:31;;;;;;;0.70;0.70;;;;;;;;;;4998478;28;20042;-79
2024/01/05 07:05:57;;;;;;;0.88;0.75;;;;;;;;;;4993585;28;20048;-79
2024/01/05 07:08:22;;;;;;;0.80;0.80;;;;;;;;;;4991561;28;20031;-78
2024/01/05 07:10:47;;;;;;;0.60;0.60;;;;;;;;;;4994250;28;20062;-79
2024/01/05 07:13:12;;;;;;;1.02;0.93;;;;;;;;;;4995861;28;20418;-78
2024/01/05 07:15:38;;;;;;;1.00;0.63;;;;;;;;;;4972583;28;20039;-78
2024/01/05 07:18:05;;;;;;;1.63;0.98;;;;;;;;;;4961721;28;20039;-78
2024/01/05 07:20:32;;;;;;;1.80;1.20;;;;;;;;;;4983643;28;20034;-78
2024/01/05 07:22:59;;;;;;;3.50;0.77;;;;;;;;;;4974825;28;20033;-80
2024/01/05 07:25:24;;;;;;;1.17;1.00;;;;;;;;;;4965135;28;20043;-79
2024/01/05 07:27:50;;;;;;;1.27;1.13;;;;;;;;;;4960296;28;20034;-79
2024/01/05 07:30:15;;;;;;;1.48;0.70;;;;;;;;;;4954808;28;20130;-79
2024/01/05 07:32:40;;;;;;;4.00;1.73;;;;;;;;;;4976971;28;20043;-78
2024/01/05 07:35:06;;;;;;;2.80;0.85;;;;;;;;;;4959039;28;20042;-79
2024/01/05 07:37:31;;;;;;;0.80;0.65;;;;;;;;;;4983699;28;20038;-80
2024/01/05 07:39:57;;;;;;;1.05;0.70;;;;;;;;;;4982264;28;20039;-80
2024/01/05 07:42:22;;;;;;;1.80;0.80;;;;;;;;;;4949758;28;20188;-78
2024/01/05 07:44:47;;;;;;;0.90;0.70;;;;;;;;;;4961993;28;20039;-79
2024/01/05 07:47:13;;;;;;;1.30;0.80;;;;;;;;;;4963819;28;20093;-80
2024/01/05 07:49:40;;;;;;;1.48;0.70;;;;;;;;;;4974312;28;20122;-81
2024/01/05 07:52:05;;;;;;;1.13;0.85;;;;;;;;;;4971189;28;20043;-79
2024/01/05 07:54:31;;;;;;;1.63;0.88;;;;;;;;;;4981553;28;21236;-79
2024/01/05 07:56:56;;;;;;;0.57;0.57;;;;;;;;;;4967724;28;20046;-80
2024/01/05 07:59:21;;;;;;;1.67;0.70;;;;;;;;;;4982768;28;20038;-80
2024/01/05 08:01:51;;;;;;;0.63;0.60;;;;;;;;;;4978247;28;20583;-79
2024/01/05 08:04:16;;;;;;;1.08;0.98;;;;;;;;;;4977351;28;20036;-79
2024/01/05 08:06:42;;;;;;;2.03;0.68;;;;;;;;;;4978606;28;20046;-80
2024/01/05 08:09:08;;;;;;;4.10;0.77;;;;;;;;;;4983795;28;20034;-77
2024/01/05 08:11:33;;;;;;;1.60;0.80;;;;;;;;;;4970665;28;20042;-78
2024/01/05 08:13:58;;;;;;;0.93;0.70;;;;;;;;;;4969713;28;20042;-78
2024/01/05 08:16:25;;;;;;;0.80;0.63;;;;;;;;;;4963322;28;20042;-77
2024/01/05 08:18:50;;;;;;;0.70;0.70;;;;;;;;;;4972875;28;20045;-78
2024/01/05 08:21:16;;;;;;;1.20;0.60;;;;;;;;;;4953789;28;20043;-77
2024/01/05 08:23:41;;;;;;;2.72;1.13;;;;;;;;;;4953662;28;20451;-77
2024/01/05 08:26:07;;;;;;;0.45;0.45;;;;;;;;;;4971726;28;20038;-78
2024/01/05 08:28:33;;;;;;;1.90;0.70;;;;;;;;;;4972954;28;20038;-78
2024/01/05 08:30:59;;;;;;;1.15;0.75;;;;;;;;;;4971273;28;20503;-77
2024/01/05 08:33:24;;;;;;;2.22;0.70;;;;;;;;;;4968996;28;20135;-78
2024/01/05 08:35:49;;;;;;;2.08;0.77;;;;;;;;;;4971787;28;20058;-78
2024/01/05 08:38:14;;;;;;;0.60;0.60;;;;;;;;;;4962263;28;20628;-78
2024/01/05 08:40:40;;;;;;;0.85;0.60;;;;;;;;;;4969563;28;20035;-77
2024/01/05 08:43:06;;;;;;;1.60;0.75;;;;;;;;;;4989914;28;20030;-78
2024/01/05 08:45:32;;;;;;;0.98;0.75;;;;;;;;;;4941911;28;20079;-77
2024/01/05 08:47:58;;;;;;;0.57;0.57;;;;;;;;;;4972575;28;20126;-79
2024/01/05 08:50:23;;;;;;;0.75;0.68;;;;;;;;;;4978721;28;20043;-80
2024/01/05 08:52:49;;;;;;;0.77;0.60;;;;;;;;;;4978133;28;20035;-80
2024/01/05 08:55:15;;;;;;;2.50;0.95;;;;;;;;;;4969812;28;20077;-79
2024/01/05 08:57:41;;;;;;;0.90;0.68;;;;;;;;;;4964220;28;20045;-79
2024/01/05 09:00:09;;;;;;;4.45;1.00;;;;;;;;;;4978195;28;20069;-79
2024/01/05 09:02:38;;;;;;;1.10;0.60;;;;;;;;;;4980641;28;20034;-78
2024/01/05 09:05:04;;;;;;;1.10;0.63;;;;;;;;;;4973038;28;20046;-79
2024/01/05 09:07:32;;;;;;;2.40;0.55;;;;;;;;;;4981300;28;20031;-79
2024/01/05 09:09:58;;;;;;;2.55;0.80;;;;;;;;;;4982488;28;20130;-78
2024/01/05 09:12:23;;;;;;;1.70;1.05;;;;;;;;;;4973047;28;20069;-78
2024/01/05 09:14:48;;;;;;;4.90;1.10;;;;;;;;;;4955283;28;20043;-77
2024/01/05 09:17:14;;;;;;;2.42;1.02;;;;;;;;;;4972902;28;20079;-77
2024/01/05 09:19:39;;;;;;;2.80;1.02;;;;;;;;;;4968245;28;20050;-77
2024/01/05 09:22:07;;;;;;;1.35;0.90;;;;;;;;;;4966312;28;20047;-77
2024/01/05 09:24:32;;;;;;;1.70;0.90;;;;;;;;;;4968147;28;20087;-77
2024/01/05 09:26:58;;;;;;;1.55;0.98;;;;;;;;;;4971270;28;20046;-77
2024/01/05 09:29:23;;;;;;;1.02;0.93;;;;;;;;;;4969303;28;20058;-78
2024/01/05 09:31:49;;;;;;;1.75;0.88;;;;;;;;;;4959892;28;20047;-77
2024/01/05 09:34:16;;;;;;;1.23;0.88;;;;;;;;;;4975074;28;20046;-78
2024/01/05 09:36:42;;;;;;;2.50;1.20;;;;;;;;;;4972279;28;20046;-78
2024/01/05 09:39:09;;;;;;;1.20;0.65;;;;;;;;;;4972422;28;20027;-79
2024/01/05 09:41:34;;;;;;;2.15;0.90;;;;;;;;;;4971946;28;20031;-79
2024/01/05 09:44:02;;;;;;;5.43;1.20;;;;;;;;;;4964363;28;20492;-79
2024/01/05 09:46:28;;;;;;;2.40;0.88;;;;;;;;;;4979016;28;20047;-78
2024/01/05 09:48:56;;;;;;;1.75;1.10;;;;;;;;;;4956778;28;20062;-79
2024/01/05 09:51:22;;;;;;;4.22;1.33;;;;;;;;;;4981103;28;20117;-78
2024/01/05 09:53:47;;;;;;;0.90;0.90;;;;;;;;;;4985444;28;20632;-79
2024/01/05 09:56:14;;;;;;;1.55;1.02;;;;;;;;;;4981084;28;20491;-79
2024/01/05 09:58:39;;;;;;;2.72;1.00;;;;;;;;;;4979737;28;20415;-78
2024/01/05 10:01:14;;;;;;;1.15;0.90;;;;;;;;;;4986008;28;20102;-77
2024/01/05 10:03:41;;;;;;;4.45;1.27;;;;;;;;;;4987428;28;20370;-78
2024/01/05 10:06:06;;;;;;;1.40;1.30;;;;;;;;;;4992675;28;20031;-78
2024/01/05 10:08:32;;;;;;;2.88;1.23;;;;;;;;;;4986639;28;20034;-78
2024/01/05 10:11:00;;;;;;;7.72;1.10;;;;;;;;;;4963862;28;20054;-78
2024/01/05 10:13:26;;;;;;;1.15;0.93;;;;;;;;;;4967326;28;20038;-78
2024/01/05 10:15:55;;;;;;;2.33;2.03;;;;;;;;;;4989132;28;20073;-78
2024/01/05 10:18:21;;;;;;;18.33;5.50;;;;;;;;;;4987428;28;20443;-78
2024/01/05 10:20:46;;;;;;;7.13;4.07;;;;;;;;;;4984458;28;20034;-78
2024/01/05 10:23:13;;;;;;;2.00;1.73;;;;;;;;;;4994097;28;20057;-79
2024/01/05 10:25:39;;;;;;;4.00;1.50;;;;;;;;;;4956349;28;20049;-79
2024/01/05 10:28:20;;;;;;;3.90;1.30;;;;;;;;;;4986203;28;20129;-79
2024/01/05 10:30:46;;;;;;;1.13;0.98;;;;;;;;;;4972067;28;20058;-79
2024/01/05 10:33:11;;;;;;;4.03;1.15;;;;;;;;;;4962710;28;20061;-77
2024/01/05 10:35:36;;;;;;;1.83;1.35;;;;;;;;;;4979893;28;20042;-80
2024/01/05 10:38:08;;;;;;;2.25;1.40;;;;;;;;;;4954690;28;20043;-79
2024/01/05 10:40:33;;;;;;;1.52;1.20;;;;;;;;;;4984598;28;20091;-79
2024/01/05 10:43:12;;;;;;;2.72;1.67;;;;;;;;;;4980530;28;20043;-78
2024/01/05 10:45:39;;;;;;;1.25;1.15;;;;;;;;;;4968693;28;20031;-78
2024/01/05 10:48:07;;;;;;;1.30;1.20;;;;;;;;;;4979735;28;20035;-78
2024/01/05 10:50:34;;;;;;;2.55;1.77;;;;;;;;;;4986445;28;20043;-78
2024/01/05 10:53:02;;;;;;;6.07;1.65;;;;;;;;;;4985907;28;20043;-79
2024/01/05 10:55:28;;;;;;;3.05;1.25;;;;;;;;;;4969132;28;20093;-79
2024/01/05 10:57:54;;;;;;;3.75;1.27;;;;;;;;;;4985268;28;20569;-78
2024/01/05 11:00:24;;;;;;;3.08;1.48;;;;;;;;;;4990746;28;20034;-77
2024/01/05 11:02:51;;;;;;;3.00;2.00;;;;;;;;;;4990473;28;20034;-79
2024/01/05 11:05:16;;;;;;;4.32;1.65;;;;;;;;;;4981800;28;20035;-80
2024/01/05 11:07:42;;;;;;;4.25;1.83;;;;;;;;;;4959467;28;20035;-79
2024/01/05 11:10:32;;;;;;;3.25;1.67;;;;;;;;;;4949761;28;20408;-80
2024/01/05 11:13:00;;;;;;;1.80;1.30;;;;;;;;;;4983762;28;20039;-79
2024/01/05 11:15:48;;;;;;;3.50;1.38;;;;;;;;;;4983884;28;20065;-78
2024/01/05 11:18:44;;;;;;;3.85;1.38;;;;;;;;;;4970087;28;20058;-79
2024/01/05 11:21:23;;;;;;;4.60;1.45;;;;;;;;;;4970947;28;20285;-78
2024/01/05 11:23:49;;;;;;;2.00;1.40;;;;;;;;;;4988561;28;20034;-77
2024/01/05 11:26:42;;;;;;;1.63;1.20;;;;;;;;;;4978662;28;20034;-78
2024/01/05 11:29:12;;;;;;;3.80;1.25;;;;;;;;;;4974024;28;20034;-78
2024/01/05 11:31:46;;;;;;;3.90;1.65;;;;;;;;;;4983869;28;20062;-80
2024/01/05 11:34:34;;;;;;;1.15;0.80;;;;;;;;;;4995563;28;20133;-78
2024/01/05 11:37:06;;;;;;;2.90;1.10;;;;;;;;;;4979157;28;20038;-78
2024/01/05 11:39:37;;;;;;;2.55;1.33;;;;;;;;;;4986091;28;20495;-79
2024/01/05 11:42:03;;;;;;;1.30;1.20;;;;;;;;;;4973912;28;20034;-79
2024/01/05 11:44:35;;;;;;;1.80;1.17;;;;;;;;;;4978904;28;20049;-79
2024/01/05 11:47:01;;;;;;;1.73;1.20;;;;;;;;;;4977601;28;20070;-79
2024/01/05 11:49:41;;;;;;;2.35;1.25;;;;;;;;;;4984791;28;20116;-79
2024/01/05 11:52:07;;;;;;;3.65;1.33;;;;;;;;;;4972273;28;20042;-78
2024/01/05 11:54:33;;;;;;;3.92;1.63;;;;;;;;;;4972948;28;20046;-78
2024/01/05 11:57:02;;;;;;;1.95;1.13;;;;;;;;;;4986178;28;20133;-79
2024/01/05 11:59:27;;;;;;;1.95;1.30;;;;;;;;;;4980878;28;20043;-79
2024/01/05 12:01:53;;;;;;;2.60;1.25;;;;;;;;;;4978974;28;20562;-79
2024/01/05 12:04:19;;;;;;;3.42;1.73;;;;;;;;;;4979050;28;20622;-79
2024/01/05 12:06:54;;;;;;;5.43;1.52;;;;;;;;;;4965889;28;20538;-78
2024/01/05 12:09:22;;;;;;;1.15;1.00;;;;;;;;;;4979942;28;20042;-77
2024/01/05 12:11:47;;;;;;;5.43;1.00;;;;;;;;;;4977004;28;20030;-78
2024/01/05 12:14:26;;;;;;;1.95;1.00;;;;;;;;;;4977738;28;20041;-79
2024/01/05 12:16:52;;;;;;;3.13;1.15;;;;;;;;;;4965503;28;20038;-77
2024/01/05 12:19:21;;;;;;;2.60;1.55;;;;;;;;;;4986173;28;20030;-79
2024/01/05 12:21:50;;;;;;;3.78;1.30;;;;;;;;;;4983151;28;20062;-79
2024/01/05 12:24:16;;;;;;;7.38;1.58;;;;;;;;;;4978431;28;20022;-79
2024/01/05 12:26:41;;;;;;;1.52;1.20;;;;;;;;;;4975196;28;20057;-79
2024/01/05 12:29:08;;;;;;;2.15;1.23;;;;;;;;;;4976400;28;20015;-79
2024/01/05 12:31:33;;;;;;;3.40;1.73;;;;;;;;;;4976467;28;20042;-79
2024/01/05 12:33:59;;;;;;;2.47;1.63;;;;;;;;;;4984125;28;20137;-81
2024/01/05 12:36:27;;;;;;;5.28;1.80;;;;;;;;;;4984345;28;20092;-80
2024/01/05 12:38:52;;;;;;;3.10;1.40;;;;;;;;;;4946346;28;20039;-79
2024/01/05 12:41:19;;;;;;;3.28;1.38;;;;;;;;;;4983929;28;20557;-80
2024/01/05 12:43:46;;;;;;;5.72;1.90;;;;;;;;;;4958923;28;20039;-79
2024/01/05 12:46:11;;;;;;;5.97;1.52;;;;;;;;;;4982426;28;20046;-79
2024/01/05 12:48:37;;;;;;;2.95;1.27;;;;;;;;;;4982346;28;20046;-80
2024/01/05 12:51:14;;;;;;;5.47;1.90;;;;;;;;;;4980535;28;20114;-79
2024/01/05 12:53:39;;;;;;;1.70;1.35;;;;;;;;;;4981971;28;20045;-79
2024/01/05 12:56:08;;;;;;;1.55;1.20;;;;;;;;;;4964821;28;20269;-81
2024/01/05 12:58:44;;;;;;;4.93;1.50;;;;;;;;;;4981876;28;20034;-80
2024/01/05 13:01:23;;;;;;;2.75;1.33;;;;;;;;;;4947509;28;20031;-81
2024/01/05 13:03:56;;;;;;;4.55;1.60;;;;;;;;;;4974992;28;20038;-80
2024/01/05 13:06:24;;;;;;;1.65;1.20;;;;;;;;;;4971326;28;20035;-80
2024/01/05 13:08:49;;;;;;;4.70;1.55;;;;;;;;;;4976568;28;20439;-80
2024/01/05 13:11:19;;;;;;;7.13;1.60;;;;;;;;;;4986467;28;20093;-80
2024/01/05 13:13:44;;;;;;;4.13;1.73;;;;;;;;;;4975981;28;20105;-80
2024/01/05 13:16:10;;;;;;;2.55;1.42;;;;;;;;;;4988801;28;20628;-80
2024/01/05 13:18:36;;;;;;;5.10;3.85;;;;;;;;;;4977268;28;20044;-80
2024/01/05 13:21:01;;;;;;;21.52;8.70;;;;;;;;;;4983879;28;20372;-81
2024/01/05 13:23:29;;;;;;;8.68;4.60;;;;;;;;;;4992696;28;20561;-80
2024/01/05 13:25:54;;;;;;;8.27;3.17;;;;;;;;;;4985814;28;20031;-80
2024/01/05 13:28:19;;;;;;;6.50;2.25;;;;;;;;;;4975182;28;20046;-80
2024/01/05 13:30:45;;;;;;;3.45;2.08;;;;;;;;;;4986713;28;20034;-80
2024/01/05 13:33:12;;;;;;;3.80;1.95;;;;;;;;;;4960907;28;20041;-82
2024/01/05 13:35:38;;;;;;;9.15;4.65;;;;;;;;;;4983255;28;20454;-81
2024/01/05 13:38:04;;;;;;;8.45;4.55;;;;;;;;;;4959383;28;20062;-81
2024/01/05 13:40:29;;;;;;;12.55;3.05;;;;;;;;;;4984719;28;20058;-83
2024/01/05 13:42:55;;;;;;;5.93;2.28;;;;;;;;;;4992769;28;20054;-80
2024/01/05 13:45:21;;;;;;;7.80;2.55;;;;;;;;;;4998024;28;20038;-81
2024/01/05 13:47:46;;;;;;;5.90;3.13;;;;;;;;;;4991191;28;20038;-81
2024/01/05 13:50:11;;;;;;;4.82;1.80;;;;;;;;;;4984593;28;20035;-81
2024/01/05 13:52:37;;;;;;;5.80;2.17;;;;;;;;;;4981525;28;20051;-80
2024/01/05 13:55:02;;;;;;;5.18;2.17;;;;;;;;;;4981303;28;20447;-80
2024/01/05 13:57:27;;;;;;;3.60;2.65;;;;;;;;;;4984725;28;20052;-79
2024/01/05 13:59:53;;;;;;;7.95;4.60;;;;;;;;;;4983195;28;20612;-81
2024/01/05 14:02:19;;;;;;;4.28;2.22;;;;;;;;;;4976500;28;20042;-81
2024/01/05 14:04:46;;;;;;;1.83;1.67;;;;;;;;;;4985779;28;20038;-80
2024/01/05 14:07:11;;;;;;;1.80;1.70;;;;;;;;;;4977395;28;20065;-81
2024/01/05 14:09:37;;;;;;;2.00;1.80;;;;;;;;;;4975850;28;20038;-81
2024/01/05 14:12:02;;;;;;;4.35;1.88;;;;;;;;;;4976302;28;20041;-81
2024/01/05 14:14:27;;;;;;;3.90;2.45;;;;;;;;;;4982071;28;20447;-80
2024/01/05 14:16:53;;;;;;;4.07;2.90;;;;;;;;;;4978991;28;20126;-81
2024/01/05 14:19:18;;;;;;;6.53;4.03;;;;;;;;;;4988725;28;20050;-80
2024/01/05 14:21:43;;;;;;;35.17;18.30;;;;;;;;;;4988313;28;20041;-79
2024/01/05 14:24:09;;;;;;;47.42;20.35;;;;;;;;;;4967709;28;20030;-81
2024/01/05 14:26:35;;;;;;;43.35;21.20;;;;;;;;;;4975225;28;20042;-79
2024/01/05 14:29:01;;;;;;;35.88;19.10;;;;;;;;;;4987537;28;20466;-81
2024/01/05 14:31:30;;;;;;;15.90;8.50;;;;;;;;;;4980658;28;20070;-81
2024/01/05 14:33:57;;;;;;;5.63;4.10;;;;;;;;;;4978101;28;20043;-81
2024/01/05 14:36:23;;;;;;;5.18;2.67;;;;;;;;;;4975745;28;20035;-81
2024/01/05 14:38:49;;;;;;;8.07;3.72;;;;;;;;;;4982477;28;20125;-80